createdAt,value
2022-11-28T00:01:23.830Z,9.88
2022-11-28T00:03:51.016Z,9.93
2022-11-28T00:06:18.634Z,10.60
2022-11-28T00:08:45.835Z,9.82
2022-11-28T00:11:13.796Z,9.82
2022-11-28T00:13:41.289Z,10.55
2022-11-28T00:16:09.275Z,10.23
2022-11-28T00:18:36.836Z,10.10
2022-11-28T00:21:05.855Z,10.15
2022-11-28T00:23:33.499Z,9.75
2022-11-28T00:26:01.494Z,9.38
2022-11-28T00:28:29.047Z,9.45
2022-11-28T00:30:56.259Z,8.75
2022-11-28T00:33:23.522Z,9.45
2022-11-28T00:35:50.667Z,9.15
2022-11-28T00:38:17.915Z,10.05
2022-11-28T00:40:45.141Z,8.55
2022-11-28T00:43:12.971Z,9.50
2022-11-28T00:45:40.147Z,9.35
2022-11-28T00:48:07.341Z,9.95
2022-11-28T00:50:34.515Z,8.90
2022-11-28T00:53:01.644Z,9.10
2022-11-28T00:55:28.742Z,8.95
2022-11-28T00:57:56.071Z,8.88
2022-11-28T01:00:23.361Z,9.73
2022-11-28T01:02:50.755Z,9.20
2022-11-28T01:05:17.982Z,9.77
2022-11-28T01:07:45.172Z,9.60
2022-11-28T01:10:12.536Z,8.68
2022-11-28T01:12:39.859Z,9.40
2022-11-28T01:15:08.623Z,8.88
2022-11-28T01:17:35.744Z,9.00
2022-11-28T01:20:03.189Z,10.50
2022-11-28T01:22:30.327Z,9.68
2022-11-28T01:24:57.474Z,9.65
2022-11-28T01:27:24.607Z,9.73
2022-11-28T01:29:51.771Z,10.45
2022-11-28T01:32:19.047Z,8.95
2022-11-28T01:34:46.210Z,8.85
2022-11-28T01:37:13.324Z,9.50
2022-11-28T01:39:40.515Z,9.20
2022-11-28T01:42:07.711Z,9.57
2022-11-28T01:44:34.845Z,9.38
2022-11-28T01:47:02.073Z,9.75
2022-11-28T01:49:38.709Z,10.18
2022-11-28T01:52:08.345Z,9.88
2022-11-28T01:54:36.176Z,10.30
2022-11-28T01:57:05.579Z,9.93
2022-11-28T01:59:36.523Z,9.95
2022-11-28T02:02:09.591Z,9.85
2022-11-28T02:04:37.016Z,9.93
2022-11-28T02:07:04.180Z,10.05
2022-11-28T02:09:31.299Z,9.63
2022-11-28T02:12:15.745Z,9.75
2022-11-28T02:15:01.439Z,9.52
2022-11-28T02:17:31.635Z,9.85
2022-11-28T02:19:58.844Z,9.52
2022-11-28T02:22:32.919Z,9.90
2022-11-28T02:25:06.183Z,9.20
2022-11-28T02:27:46.819Z,9.50
2022-11-28T02:30:19.795Z,9.10
2022-11-28T02:32:46.954Z,9.70
2022-11-28T02:35:26.226Z,9.52
2022-11-28T02:37:56.157Z,9.85
2022-11-28T02:40:25.859Z,10.77
2022-11-28T02:43:17.677Z,9.85
2022-11-28T02:45:52.652Z,10.63
2022-11-28T02:48:29.015Z,10.07
2022-11-28T02:51:16.380Z,9.60
2022-11-28T02:53:45.755Z,10.32
2022-11-28T02:56:13.561Z,10.60
2022-11-28T02:58:40.749Z,10.40
2022-11-28T03:01:13.406Z,10.73
2022-11-28T03:03:43.340Z,10.20
2022-11-28T03:06:17.775Z,9.93
2022-11-28T03:09:03.887Z,11.75
2022-11-28T03:11:49.943Z,10.63
2022-11-28T03:14:17.048Z,10.95
2022-11-28T03:16:51.099Z,11.13
2022-11-28T03:19:21.447Z,10.98
2022-11-28T03:21:54.399Z,10.65
2022-11-28T03:24:27.685Z,10.45
2022-11-28T03:26:57.507Z,9.98
2022-11-28T03:29:37.791Z,10.60
2022-11-28T03:32:07.633Z,11.27
2022-11-28T03:34:38.539Z,10.48
2022-11-28T03:37:09.405Z,10.07
2022-11-28T03:39:41.530Z,10.55
2022-11-28T03:42:11.867Z,10.73
2022-11-28T03:44:50.517Z,11.13
2022-11-28T03:47:17.671Z,10.18
2022-11-28T03:49:55.306Z,11.43
2022-11-28T03:52:48.751Z,10.95
2022-11-28T03:55:18.955Z,10.48
2022-11-28T03:57:50.003Z,11.70
2022-11-28T04:00:17.255Z,10.45
2022-11-28T04:02:53.373Z,10.57
2022-11-28T04:05:28.522Z,11.10
2022-11-28T04:08:00.138Z,11.85
2022-11-28T04:10:35.773Z,11.88
2022-11-28T04:13:21.455Z,12.00
2022-11-28T04:15:58.135Z,10.85
2022-11-28T04:18:25.306Z,12.38
2022-11-28T04:21:02.922Z,11.32
2022-11-28T04:23:30.732Z,11.65
2022-11-28T04:26:01.304Z,11.00
2022-11-28T04:28:30.645Z,10.70
2022-11-28T04:30:59.429Z,10.80
2022-11-28T04:33:27.834Z,11.57
2022-11-28T04:35:56.708Z,11.57
2022-11-28T04:38:25.319Z,11.40
2022-11-28T04:41:11.446Z,12.32
2022-11-28T04:43:41.323Z,13.98
2022-11-28T04:46:11.434Z,12.27
2022-11-28T04:48:38.749Z,12.57
2022-11-28T04:51:21.341Z,13.20
2022-11-28T04:53:51.266Z,12.73
2022-11-28T04:56:22.187Z,11.15
2022-11-28T04:58:50.149Z,11.25
2022-11-28T05:01:19.778Z,11.52
2022-11-28T05:03:47.028Z,11.55
2022-11-28T05:06:23.349Z,11.73
2022-11-28T05:08:50.699Z,11.77
2022-11-28T05:11:17.835Z,11.05
2022-11-28T05:13:45.070Z,12.40
2022-11-28T05:16:15.872Z,12.35
2022-11-28T05:18:43.225Z,12.30
2022-11-28T05:21:10.709Z,10.68
2022-11-28T05:23:38.656Z,12.23
2022-11-28T05:26:09.949Z,12.48
2022-11-28T05:28:37.235Z,11.57
2022-11-28T05:31:04.888Z,11.48
2022-11-28T05:33:33.237Z,10.85
2022-11-28T05:36:11.386Z,10.85
2022-11-28T05:38:40.204Z,10.60
2022-11-28T05:41:07.355Z,11.13
2022-11-28T05:43:34.543Z,10.93
2022-11-28T05:46:01.746Z,10.43
2022-11-28T05:48:29.083Z,10.57
2022-11-28T05:50:56.260Z,10.13
2022-11-28T05:53:23.418Z,9.70
2022-11-28T05:55:50.563Z,9.75
2022-11-28T05:58:17.687Z,9.07
2022-11-28T06:00:44.848Z,9.63
2022-11-28T06:03:11.956Z,8.70
2022-11-28T06:05:43.156Z,10.13
2022-11-28T06:08:12.337Z,9.45
2022-11-28T06:10:42.455Z,9.35
2022-11-28T06:13:09.602Z,8.95
2022-11-28T06:15:38.533Z,9.98
2022-11-28T06:18:06.080Z,10.02
2022-11-28T06:20:35.759Z,10.02
2022-11-28T06:23:02.921Z,10.38
2022-11-28T06:25:30.071Z,10.82
2022-11-28T06:27:57.195Z,10.32
2022-11-28T06:30:24.351Z,11.65
2022-11-28T06:32:51.500Z,10.65
2022-11-28T06:35:18.635Z,11.55
2022-11-28T06:37:45.816Z,10.30
2022-11-28T06:40:13.070Z,10.48
2022-11-28T06:42:40.199Z,10.25
2022-11-28T06:45:07.728Z,9.30
2022-11-28T06:47:34.846Z,10.23
2022-11-28T06:50:02.025Z,10.32
2022-11-28T06:52:29.146Z,10.23
2022-11-28T06:54:56.281Z,10.20
2022-11-28T06:57:23.813Z,9.68
2022-11-28T06:59:50.941Z,10.45
2022-11-28T07:02:18.175Z,9.50
2022-11-28T07:04:45.357Z,10.13
2022-11-28T07:07:16.314Z,10.32
2022-11-28T07:09:44.334Z,9.77
2022-11-28T07:12:11.631Z,10.07
2022-11-28T07:14:38.830Z,10.25
2022-11-28T07:17:06.165Z,9.55
2022-11-28T07:19:33.320Z,9.20
2022-11-28T07:22:00.730Z,10.13
2022-11-28T07:24:27.900Z,10.52
2022-11-28T07:26:55.041Z,10.93
2022-11-28T07:29:22.937Z,10.65
2022-11-28T07:31:50.197Z,10.68
2022-11-28T07:34:17.528Z,10.38
2022-11-28T07:36:44.665Z,10.43
2022-11-28T07:39:14.147Z,10.65
2022-11-28T07:41:41.321Z,9.93
2022-11-28T07:44:08.432Z,9.65
2022-11-28T07:46:35.589Z,9.73
2022-11-28T07:49:04.291Z,10.05
2022-11-28T07:51:32.657Z,9.27
2022-11-28T07:54:00.738Z,8.70
2022-11-28T07:56:50.115Z,10.45
2022-11-28T07:59:17.258Z,9.25
2022-11-28T08:01:44.530Z,9.75
2022-11-28T08:04:11.761Z,10.25
2022-11-28T08:06:40.427Z,9.93
2022-11-28T08:09:07.831Z,10.30
2022-11-28T08:11:35.185Z,9.77
2022-11-28T08:14:02.383Z,10.15
2022-11-28T08:16:30.059Z,10.43
2022-11-28T08:18:58.079Z,11.13
2022-11-28T08:21:29.087Z,10.88
2022-11-28T08:23:58.757Z,10.75
2022-11-28T08:26:30.345Z,10.52
2022-11-28T08:28:58.428Z,10.20
2022-11-28T08:31:27.687Z,9.85
2022-11-28T08:33:56.234Z,9.95
2022-11-28T08:36:23.401Z,9.68
2022-11-28T08:39:03.859Z,10.00
2022-11-28T08:41:37.749Z,9.57
2022-11-28T08:44:04.977Z,10.10
2022-11-28T08:46:32.607Z,10.13
2022-11-28T08:49:04.245Z,9.68
2022-11-28T08:51:31.814Z,9.20
2022-11-28T08:53:59.745Z,8.75
2022-11-28T08:56:27.505Z,9.23
2022-11-28T08:58:55.100Z,8.77
2022-11-28T09:01:23.554Z,8.68
2022-11-28T09:03:51.171Z,9.65
2022-11-28T09:06:18.952Z,9.73
2022-11-28T09:08:46.351Z,9.27
2022-11-28T09:11:15.178Z,9.20
2022-11-28T09:13:42.760Z,9.52
2022-11-28T09:16:09.887Z,8.38
2022-11-28T09:18:37.367Z,10.05
2022-11-28T09:21:09.390Z,8.88
2022-11-28T09:23:37.580Z,8.82
2022-11-28T09:26:11.401Z,8.60
2022-11-28T09:28:38.589Z,8.27
2022-11-28T09:31:06.633Z,7.80
2022-11-28T09:33:34.040Z,8.35
2022-11-28T09:36:04.985Z,8.07
2022-11-28T09:38:32.166Z,7.20
2022-11-28T09:40:59.350Z,7.70
2022-11-28T09:43:37.192Z,8.00
2022-11-28T09:46:10.730Z,7.90
2022-11-28T09:48:40.765Z,8.23
2022-11-28T09:51:22.698Z,8.60
2022-11-28T09:53:56.003Z,7.22
2022-11-28T09:56:23.230Z,8.48
2022-11-28T09:58:58.985Z,7.82
2022-11-28T10:01:46.702Z,7.90
2022-11-28T10:04:22.562Z,7.68
2022-11-28T10:06:53.827Z,8.18
2022-11-28T10:09:24.058Z,7.90
2022-11-28T10:11:57.153Z,7.78
2022-11-28T10:14:33.259Z,7.53
2022-11-28T10:17:16.912Z,7.40
2022-11-28T10:19:55.888Z,7.40
2022-11-28T10:22:30.372Z,7.25
2022-11-28T10:25:01.364Z,7.25
2022-11-28T10:27:33.720Z,7.43
2022-11-28T10:30:04.055Z,7.65
2022-11-28T10:32:40.526Z,7.93
2022-11-28T10:35:11.442Z,7.22
2022-11-28T10:37:39.551Z,7.53
2022-11-28T10:40:17.636Z,8.32
2022-11-28T10:42:47.771Z,6.93
2022-11-28T10:45:14.946Z,6.90
2022-11-28T10:47:51.406Z,7.82
2022-11-28T10:50:32.552Z,7.30
2022-11-28T10:53:03.311Z,6.25
2022-11-28T10:55:30.400Z,7.53
2022-11-28T10:58:00.408Z,6.53
2022-11-28T11:00:27.515Z,6.38
2022-11-28T11:02:58.668Z,6.60
2022-11-28T11:05:27.457Z,6.20
2022-11-28T11:07:54.847Z,6.47
2022-11-28T11:10:22.264Z,6.47
2022-11-28T11:12:52.089Z,5.97
2022-11-28T11:15:24.477Z,5.75
2022-11-28T11:17:51.937Z,6.78
2022-11-28T11:20:33.743Z,6.95
2022-11-28T11:23:13.862Z,6.95
2022-11-28T11:25:49.144Z,6.97
2022-11-28T11:28:27.221Z,7.07
2022-11-28T11:31:01.957Z,5.63
2022-11-28T11:33:36.581Z,6.25
2022-11-28T11:36:05.406Z,5.93
2022-11-28T11:38:37.930Z,6.00
2022-11-28T11:41:27.412Z,6.10
2022-11-28T11:43:54.640Z,6.72
2022-11-28T11:46:21.874Z,6.25
2022-11-28T11:48:52.601Z,6.30
2022-11-28T11:51:22.816Z,5.95
2022-11-28T11:53:49.957Z,5.70
2022-11-28T11:56:17.360Z,6.30
2022-11-28T11:58:47.278Z,6.35
2022-11-28T12:01:16.229Z,6.10
2022-11-28T12:03:53.721Z,6.40
2022-11-28T12:06:26.683Z,6.60
2022-11-28T12:08:55.424Z,6.32
2022-11-28T12:11:22.555Z,7.07
2022-11-28T12:13:50.652Z,6.13
2022-11-28T12:16:29.906Z,6.68
2022-11-28T12:18:57.127Z,6.65
2022-11-28T12:21:31.521Z,6.38
2022-11-28T12:24:08.706Z,6.50
2022-11-28T12:26:45.086Z,6.25
2022-11-28T12:32:14.899Z,6.63
2022-11-28T12:34:44.773Z,5.85
2022-11-28T12:37:14.711Z,6.03
2022-11-28T12:40:00.679Z,6.18
2022-11-28T12:42:51.151Z,6.07
2022-11-28T12:45:33.416Z,6.68
2022-11-28T12:48:00.559Z,6.40
2022-11-28T12:50:34.027Z,6.82
2022-11-28T12:53:01.149Z,6.28
2022-11-28T12:55:35.376Z,5.93
2022-11-28T12:58:06.716Z,6.40
2022-11-28T13:00:34.258Z,6.22
2022-11-28T13:03:13.825Z,6.45
2022-11-28T13:05:43.798Z,6.30
2022-11-28T13:08:30.029Z,7.07
2022-11-28T13:11:03.468Z,6.57
2022-11-28T13:13:32.605Z,6.25
2022-11-28T13:16:23.618Z,7.72
2022-11-28T13:18:59.701Z,7.57
2022-11-28T13:21:29.664Z,8.25
2022-11-28T13:23:59.818Z,8.30
2022-11-28T13:26:38.614Z,8.70
2022-11-28T13:29:08.588Z,8.82
2022-11-28T13:32:00.427Z,8.52
2022-11-28T13:34:29.464Z,8.18
2022-11-28T13:39:52.854Z,8.07
2022-11-28T13:45:26.587Z,7.53
2022-11-28T13:47:58.462Z,7.75
2022-11-28T13:50:25.752Z,8.48
2022-11-28T13:53:03.015Z,7.88
2022-11-28T13:55:46.904Z,7.80
2022-11-28T13:58:17.362Z,7.75
2022-11-28T14:00:59.096Z,7.80
2022-11-28T14:03:26.613Z,7.55
2022-11-28T14:06:01.520Z,8.25
2022-11-28T14:08:32.970Z,7.47
2022-11-28T14:11:12.148Z,6.50
2022-11-28T14:13:50.292Z,6.82
2022-11-28T14:16:20.296Z,7.07
2022-11-28T14:19:06.796Z,7.18
2022-11-28T14:21:33.923Z,7.22
2022-11-28T14:24:10.300Z,7.88
2022-11-28T14:26:39.504Z,7.57
2022-11-28T14:29:08.120Z,7.20
2022-11-28T14:31:37.724Z,6.70
2022-11-28T14:34:11.582Z,8.07
2022-11-28T14:36:41.933Z,7.80
2022-11-28T14:39:13.719Z,7.15
2022-11-28T14:41:59.781Z,7.38
2022-11-28T14:44:46.282Z,7.30
2022-11-28T14:47:22.674Z,6.78
2022-11-28T14:49:49.996Z,7.05
2022-11-28T14:52:37.694Z,5.72
2022-11-28T14:55:06.507Z,5.72
2022-11-28T14:57:36.009Z,6.20
2022-11-28T15:00:15.158Z,4.95
2022-11-28T15:02:47.512Z,5.43
2022-11-28T15:05:14.699Z,5.28
2022-11-28T15:07:57.049Z,5.40
2022-11-28T15:10:27.588Z,5.70
2022-11-28T15:13:00.930Z,5.32
2022-11-28T15:15:28.096Z,5.28
2022-11-28T15:17:55.590Z,5.85
2022-11-28T15:20:42.458Z,5.05
2022-11-28T15:23:26.510Z,5.82
2022-11-28T15:25:55.199Z,4.97
2022-11-28T15:28:23.716Z,6.25
2022-11-28T15:30:52.037Z,6.00
2022-11-28T15:33:19.615Z,5.53
2022-11-28T15:36:10.885Z,6.00
2022-11-28T15:38:38.386Z,5.35
2022-11-28T15:41:05.565Z,5.65
2022-11-28T15:43:32.816Z,5.70
2022-11-28T15:46:01.595Z,5.55
2022-11-28T15:48:28.685Z,5.35
2022-11-28T15:50:56.145Z,5.90
2022-11-28T15:53:23.363Z,6.32
2022-11-28T15:56:11.242Z,6.85
2022-11-28T15:58:38.772Z,5.65
2022-11-28T16:01:11.408Z,7.30
2022-11-28T16:03:50.738Z,6.50
2022-11-28T16:06:18.948Z,5.70
2022-11-28T16:08:54.928Z,6.18
2022-11-28T16:11:23.663Z,5.80
2022-11-28T16:13:51.648Z,6.55
2022-11-28T16:16:20.279Z,5.40
2022-11-28T16:18:51.000Z,5.57
2022-11-28T16:21:18.185Z,5.82
2022-11-28T16:23:45.322Z,5.50
2022-11-28T16:26:30.485Z,5.38
2022-11-28T16:29:02.254Z,4.50
2022-11-28T16:31:29.963Z,5.53
2022-11-28T16:33:57.316Z,6.63
2022-11-28T16:36:26.178Z,6.78
2022-11-28T16:38:54.924Z,6.80
2022-11-28T16:41:24.970Z,6.57
2022-11-28T16:44:11.777Z,6.65
2022-11-28T16:46:49.707Z,6.85
2022-11-28T16:49:32.074Z,6.82
2022-11-28T16:52:17.804Z,7.38
2022-11-28T16:54:44.944Z,6.65
2022-11-28T16:57:14.699Z,7.78
2022-11-28T16:59:43.033Z,6.68
2022-11-28T17:02:15.532Z,7.75
2022-11-28T17:04:42.766Z,7.85
2022-11-28T17:07:14.603Z,8.07
2022-11-28T17:09:42.510Z,8.25
2022-11-28T17:12:27.478Z,7.82
2022-11-28T17:14:55.286Z,8.50
2022-11-28T17:17:26.532Z,8.55
2022-11-28T17:19:53.677Z,8.48
2022-11-28T17:22:22.348Z,8.82
2022-11-28T17:24:50.450Z,8.00
2022-11-28T17:27:18.986Z,8.50
2022-11-28T17:29:46.391Z,8.48
2022-11-28T17:32:14.667Z,8.35
2022-11-28T17:34:42.626Z,9.73
2022-11-28T17:37:10.720Z,9.05
2022-11-28T17:39:38.019Z,9.48
2022-11-28T17:42:05.700Z,9.00
2022-11-28T17:44:34.453Z,8.65
2022-11-28T17:47:02.229Z,9.98
2022-11-28T17:49:29.505Z,8.73
2022-11-28T17:51:57.025Z,8.63
2022-11-28T17:54:24.985Z,8.77
2022-11-28T17:56:52.727Z,8.68
2022-11-28T17:59:20.896Z,7.90
2022-11-28T18:01:48.646Z,7.80
2022-11-28T18:04:15.895Z,8.05
2022-11-28T18:06:44.456Z,7.72
2022-11-28T18:09:12.478Z,7.97
2022-11-28T18:11:39.996Z,7.45
2022-11-28T18:14:07.193Z,8.00
2022-11-28T18:16:36.196Z,8.35
2022-11-28T18:19:03.742Z,7.13
2022-11-28T18:21:30.950Z,8.05
2022-11-28T18:23:58.135Z,7.60
2022-11-28T18:26:26.293Z,8.10
2022-11-28T18:28:53.796Z,8.27
2022-11-28T18:31:25.254Z,8.32
2022-11-28T18:33:55.175Z,8.68
2022-11-28T18:36:27.422Z,8.40
2022-11-28T18:38:55.550Z,8.27
2022-11-28T18:41:22.691Z,8.27
2022-11-28T18:43:49.825Z,8.38
2022-11-28T18:46:21.498Z,8.02
2022-11-28T18:48:48.877Z,7.75
2022-11-28T18:51:17.502Z,7.78
2022-11-28T18:53:45.037Z,8.32
2022-11-28T18:56:13.001Z,7.97
2022-11-28T18:58:41.288Z,8.30
2022-11-28T19:01:12.816Z,8.93
2022-11-28T19:03:40.309Z,8.82
2022-11-28T19:06:08.442Z,9.32
2022-11-28T19:08:35.591Z,8.88
2022-11-28T19:11:09.393Z,8.40
2022-11-28T19:13:40.390Z,8.73
2022-11-28T19:16:08.795Z,9.45
2022-11-28T19:18:36.481Z,9.00
2022-11-28T19:21:07.536Z,9.13
2022-11-28T19:23:34.835Z,9.20
2022-11-28T19:26:03.723Z,9.48
2022-11-28T19:28:30.837Z,9.82
2022-11-28T19:31:05.330Z,9.82
2022-11-28T19:33:32.469Z,10.38
2022-11-28T19:36:06.943Z,11.02
2022-11-28T19:38:34.419Z,10.40
2022-11-28T19:41:12.295Z,9.57
2022-11-28T19:43:39.555Z,10.00
2022-11-28T19:46:07.100Z,9.57
2022-11-28T19:48:35.232Z,9.52
2022-11-28T19:51:03.733Z,9.82
2022-11-28T19:53:31.383Z,9.65
2022-11-28T19:56:03.188Z,9.43
2022-11-28T19:58:31.564Z,9.77
2022-11-28T20:01:10.010Z,9.52
2022-11-28T20:03:37.774Z,9.95
2022-11-28T20:06:09.302Z,9.32
2022-11-28T20:08:36.836Z,9.50
2022-11-28T20:11:07.711Z,10.77
2022-11-28T20:13:34.859Z,10.27
2022-11-28T20:16:05.505Z,9.65
2022-11-28T20:18:33.126Z,10.70
2022-11-28T20:21:04.781Z,10.27
2022-11-28T20:23:31.945Z,9.73
2022-11-28T20:26:06.081Z,9.90
2022-11-28T20:28:34.361Z,9.33
2022-11-28T20:31:01.712Z,10.48
2022-11-28T20:33:29.152Z,10.32
2022-11-28T20:36:09.413Z,9.50
2022-11-28T20:38:36.887Z,10.02
2022-11-28T20:41:05.136Z,11.05
2022-11-28T20:43:32.898Z,10.32
2022-11-28T20:46:07.571Z,10.73
2022-11-28T20:48:35.014Z,11.32
2022-11-28T20:51:02.118Z,10.82
2022-11-28T20:53:29.351Z,10.73
2022-11-28T20:56:00.491Z,10.25
2022-11-28T20:58:27.695Z,11.07
2022-11-28T21:00:54.980Z,10.55
2022-11-28T21:03:22.175Z,10.73
2022-11-28T21:05:49.297Z,10.85
2022-11-28T21:08:16.708Z,11.25
2022-11-28T21:10:43.870Z,10.82
2022-11-28T21:13:11.478Z,10.10
2022-11-28T21:15:42.618Z,10.07
2022-11-28T21:18:09.845Z,10.50
2022-11-28T21:20:42.878Z,10.10
2022-11-28T21:23:10.898Z,11.07
2022-11-28T21:25:38.720Z,9.07
2022-11-28T21:28:05.897Z,10.80
2022-11-28T21:30:33.446Z,10.25
2022-11-28T21:33:00.567Z,9.23
2022-11-28T21:35:27.758Z,10.00
2022-11-28T21:37:55.155Z,10.65
2022-11-28T21:40:22.269Z,10.27
2022-11-28T21:42:49.413Z,10.30
2022-11-28T21:45:16.509Z,10.45
2022-11-28T21:47:43.710Z,9.38
2022-11-28T21:50:11.181Z,9.27
2022-11-28T21:52:38.314Z,9.95
2022-11-28T21:55:05.626Z,9.38
2022-11-28T21:57:32.718Z,9.38
2022-11-28T21:59:59.897Z,10.15
2022-11-28T22:02:30.787Z,9.68
2022-11-28T22:04:59.232Z,10.02
2022-11-28T22:07:26.421Z,9.35
2022-11-28T22:09:54.188Z,9.65
2022-11-28T22:12:21.356Z,10.20
2022-11-28T22:14:48.743Z,9.73
2022-11-28T22:17:16.113Z,10.13
2022-11-28T22:19:43.229Z,10.57
2022-11-28T22:22:10.430Z,10.88
2022-11-28T22:24:37.591Z,10.57
2022-11-28T22:27:04.774Z,10.70
2022-11-28T22:29:31.971Z,11.73
2022-11-28T22:31:59.537Z,11.60
2022-11-28T22:34:26.795Z,11.88
2022-11-28T22:36:53.933Z,12.50
2022-11-28T22:39:21.055Z,12.15
2022-11-28T22:41:48.177Z,12.00
2022-11-28T22:44:15.374Z,12.63
2022-11-28T22:46:42.521Z,13.05
2022-11-28T22:49:10.142Z,11.45
2022-11-28T22:51:37.444Z,11.93
2022-11-28T22:54:04.993Z,11.38
2022-11-28T22:56:33.227Z,11.23
2022-11-28T22:59:01.143Z,11.15
2022-11-28T23:01:29.907Z,11.93
2022-11-28T23:03:57.107Z,11.40
2022-11-28T23:06:25.717Z,11.75
2022-11-28T23:08:53.363Z,10.77
2022-11-28T23:11:22.494Z,11.25
2022-11-28T23:13:49.945Z,10.13
2022-11-28T23:16:18.338Z,10.25
2022-11-28T23:18:46.592Z,10.45
2022-11-28T23:21:14.270Z,10.18
2022-11-28T23:23:41.595Z,9.75
2022-11-28T23:26:10.472Z,9.38
2022-11-28T23:28:37.725Z,10.07
2022-11-28T23:31:06.061Z,9.35
2022-11-28T23:33:33.511Z,9.98
2022-11-28T23:36:00.861Z,9.77
2022-11-28T23:38:28.018Z,8.95
2022-11-28T23:40:56.577Z,9.45
2022-11-28T23:43:23.726Z,9.82
2022-11-28T23:45:50.927Z,8.50
2022-11-28T23:48:18.481Z,9.18
2022-11-28T23:50:45.606Z,9.15
2022-11-28T23:53:12.742Z,8.50
2022-11-28T23:55:40.045Z,9.18
2022-11-28T23:58:07.180Z,8.32
